Time;durP1;ratioP1;P1;durP2;ratioP2;P2;SDS_P1;SDS_P2;PMS_P1;PMS_P2;Temp;Humidity;BMP_temperature;BMP_pressure;BME280_temperature;BME280_humidity;BME280_pressure;Samples;Min_cycle;Max_cycle;Signal;HPM_P1;HPM_P2
2021/12/29 00:01:47;;;;;;;97.13;47.53;;;;;;;;;;4394236;32;20210;-83
2021/12/29 00:04:13;;;;;;;113.10;57.77;;;;;;;;;;4407895;32;20266;-83
2021/12/29 00:06:39;;;;;;;125.90;61.33;;;;;;;;;;4407531;32;20411;-81
2021/12/29 00:09:05;;;;;;;120.13;59.70;;;;;;;;;;4393403;32;20255;-85
2021/12/29 00:11:37;;;;;;;132.83;64.37;;;;;;;;;;4406972;32;20208;-84
2021/12/29 00:14:02;;;;;;;133.03;63.73;;;;;;;;;;4407932;32;20546;-81
2021/12/29 00:16:29;;;;;;;129.57;68.37;;;;;;;;;;4407249;32;20218;-80
2021/12/29 00:18:54;;;;;;;125.37;65.40;;;;;;;;;;4407214;32;20201;-85
2021/12/29 00:21:19;;;;;;;138.63;72.73;;;;;;;;;;4407539;32;20473;-85
2021/12/29 00:23:45;;;;;;;142.43;76.60;;;;;;;;;;4407431;32;20194;-80
2021/12/29 00:26:11;;;;;;;149.87;72.50;;;;;;;;;;4407160;32;20707;-80
2021/12/29 00:28:37;;;;;;;120.60;67.30;;;;;;;;;;4407593;32;20252;-83
2021/12/29 00:31:02;;;;;;;123.90;66.57;;;;;;;;;;4407447;32;20193;-83
2021/12/29 00:33:28;;;;;;;142.83;70.83;;;;;;;;;;4407824;32;20213;-83
2021/12/29 00:35:53;;;;;;;161.67;82.03;;;;;;;;;;4407807;32;20277;-83
2021/12/29 00:38:19;;;;;;;146.80;77.60;;;;;;;;;;4407495;32;20236;-82
2021/12/29 00:40:46;;;;;;;143.07;78.63;;;;;;;;;;4407223;32;20192;-85
2021/12/29 00:43:12;;;;;;;143.30;75.07;;;;;;;;;;4407122;32;20229;-81
2021/12/29 00:45:39;;;;;;;144.17;75.77;;;;;;;;;;4408691;32;20193;-81
2021/12/29 00:48:10;;;;;;;134.43;68.73;;;;;;;;;;4408224;32;20286;-80
2021/12/29 00:50:35;;;;;;;131.13;68.57;;;;;;;;;;4408599;32;20189;-82
2021/12/29 00:53:02;;;;;;;126.37;67.03;;;;;;;;;;4407434;32;20240;-80
2021/12/29 00:55:27;;;;;;;117.30;63.23;;;;;;;;;;4406402;32;20385;-81
2021/12/29 00:57:53;;;;;;;115.07;62.30;;;;;;;;;;4406842;32;20333;-81
2021/12/29 01:00:22;;;;;;;140.37;63.83;;;;;;;;;;4406891;32;20232;-81
2021/12/29 01:02:51;;;;;;;116.77;59.17;;;;;;;;;;4406966;32;20217;-83
2021/12/29 01:05:17;;;;;;;135.20;61.93;;;;;;;;;;4406811;32;20197;-81
2021/12/29 01:07:44;;;;;;;132.37;66.93;;;;;;;;;;4406968;32;20339;-81
2021/12/29 01:10:14;;;;;;;138.23;68.53;;;;;;;;;;4406951;32;20227;-81
2021/12/29 01:12:46;;;;;;;136.77;64.63;;;;;;;;;;4406760;32;20252;-83
2021/12/29 01:15:14;;;;;;;139.17;67.87;;;;;;;;;;4406811;32;20189;-84
2021/12/29 01:17:40;;;;;;;120.60;65.23;;;;;;;;;;4406930;32;20352;-85
2021/12/29 01:20:06;;;;;;;143.93;70.07;;;;;;;;;;4407045;32;20276;-82
2021/12/29 01:22:31;;;;;;;130.10;66.50;;;;;;;;;;4406875;32;20397;-84
2021/12/29 01:24:57;;;;;;;147.47;67.57;;;;;;;;;;4406460;32;20205;-83
2021/12/29 01:27:22;;;;;;;127.77;63.93;;;;;;;;;;4406507;32;20562;-82
2021/12/29 01:29:47;;;;;;;118.60;64.07;;;;;;;;;;4407008;32;20209;-84
2021/12/29 01:32:15;;;;;;;116.93;61.47;;;;;;;;;;4406737;32;20375;-86
2021/12/29 01:34:40;;;;;;;97.80;50.30;;;;;;;;;;4406192;32;20194;-82
2021/12/29 01:37:06;;;;;;;96.17;47.07;;;;;;;;;;4406306;32;20225;-79
2021/12/29 01:39:31;;;;;;;100.60;49.20;;;;;;;;;;4393517;32;20225;-82
2021/12/29 01:41:58;;;;;;;114.20;56.27;;;;;;;;;;4406751;32;20247;-85
2021/12/29 01:44:27;;;;;;;103.90;53.20;;;;;;;;;;4406462;32;20280;-80
2021/12/29 01:46:54;;;;;;;87.87;46.50;;;;;;;;;;4405908;32;20319;-80
2021/12/29 01:49:20;;;;;;;64.63;35.43;;;;;;;;;;4406359;32;20231;-81
2021/12/29 01:51:51;;;;;;;61.83;34.70;;;;;;;;;;4406183;32;20214;-85
2021/12/29 01:54:25;;;;;;;64.80;37.50;;;;;;;;;;4405984;32;20189;-81
2021/12/29 01:56:55;;;;;;;70.70;35.80;;;;;;;;;;4406085;32;20531;-80
2021/12/29 01:59:22;;;;;;;66.77;35.07;;;;;;;;;;4406116;32;20212;-82
2021/12/29 02:01:48;;;;;;;71.77;40.03;;;;;;;;;;4406038;32;20305;-82
2021/12/29 02:04:14;;;;;;;78.90;41.00;;;;;;;;;;4406288;32;20323;-83
2021/12/29 02:06:40;;;;;;;86.93;42.77;;;;;;;;;;4405710;32;20374;-82
2021/12/29 02:09:07;;;;;;;77.17;41.60;;;;;;;;;;4405777;32;20278;-83
2021/12/29 02:11:34;;;;;;;77.47;43.53;;;;;;;;;;4406120;32;20198;-81
2021/12/29 02:14:03;;;;;;;87.70;45.10;;;;;;;;;;4406062;32;20512;-84
2021/12/29 02:16:28;;;;;;;89.30;42.77;;;;;;;;;;4405655;32;20535;-80
2021/12/29 02:19:00;;;;;;;83.77;45.10;;;;;;;;;;4405874;32;20196;-82
2021/12/29 02:21:29;;;;;;;85.40;43.43;;;;;;;;;;4406139;32;20254;-85
2021/12/29 02:24:18;;;;;;;86.37;46.10;;;;;;;;;;4391693;32;20251;-82
2021/12/29 02:26:43;;;;;;;82.57;45.03;;;;;;;;;;4405728;32;20245;-80
2021/12/29 02:29:11;;;;;;;83.60;47.03;;;;;;;;;;4406816;32;20600;-84
2021/12/29 02:31:37;;;;;;;87.20;47.00;;;;;;;;;;4407242;32;20489;-80
2021/12/29 02:34:05;;;;;;;89.57;45.53;;;;;;;;;;4406044;32;20663;-80
2021/12/29 02:36:31;;;;;;;94.13;45.20;;;;;;;;;;4405812;32;20323;-82
2021/12/29 02:38:57;;;;;;;97.37;48.83;;;;;;;;;;4405875;32;20487;-82
2021/12/29 02:41:27;;;;;;;102.17;51.57;;;;;;;;;;4406116;32;20228;-82
2021/12/29 02:44:00;;;;;;;99.40;50.07;;;;;;;;;;4405643;32;20271;-80
2021/12/29 02:46:27;;;;;;;111.63;54.80;;;;;;;;;;4406576;32;20190;-84
2021/12/29 02:48:59;;;;;;;100.93;51.10;;;;;;;;;;4392121;32;20197;-85
2021/12/29 02:51:26;;;;;;;105.90;52.20;;;;;;;;;;4405478;32;20190;-80
2021/12/29 02:53:51;;;;;;;104.30;52.00;;;;;;;;;;4405978;32;20265;-80
2021/12/29 02:56:17;;;;;;;113.93;54.47;;;;;;;;;;4406253;32;20301;-81
2021/12/29 02:58:43;;;;;;;116.03;53.77;;;;;;;;;;4405206;32;20311;-86
2021/12/29 03:01:16;;;;;;;109.33;50.57;;;;;;;;;;4405630;32;20254;-81
2021/12/29 03:03:42;;;;;;;80.03;41.87;;;;;;;;;;4405519;32;20281;-80
2021/12/29 03:06:09;;;;;;;94.53;45.77;;;;;;;;;;4406736;32;20193;-82
2021/12/29 03:08:35;;;;;;;86.67;42.33;;;;;;;;;;4408207;32;20292;-82
2021/12/29 03:11:00;;;;;;;65.17;36.63;;;;;;;;;;4408048;32;20338;-82
2021/12/29 03:13:30;;;;;;;94.53;43.30;;;;;;;;;;4407821;32;20218;-81
2021/12/29 03:15:58;;;;;;;77.63;41.17;;;;;;;;;;4394402;32;20199;-85
2021/12/29 03:18:24;;;;;;;73.43;39.40;;;;;;;;;;4394540;32;20646;-83
2021/12/29 03:20:50;;;;;;;69.27;39.00;;;;;;;;;;4407995;32;20198;-81
2021/12/29 03:23:17;;;;;;;71.20;39.03;;;;;;;;;;4394155;32;20225;-80
2021/12/29 03:25:42;;;;;;;84.03;42.47;;;;;;;;;;4408358;32;20645;-85
2021/12/29 03:28:08;;;;;;;86.10;44.90;;;;;;;;;;4408472;32;20304;-83
2021/12/29 03:30:40;;;;;;;89.20;42.87;;;;;;;;;;4408092;32;20754;-83
2021/12/29 03:33:07;;;;;;;80.50;44.83;;;;;;;;;;4408039;32;20745;-80
2021/12/29 03:35:37;;;;;;;81.53;45.13;;;;;;;;;;4407737;32;20201;-83
2021/12/29 03:38:08;;;;;;;92.43;46.30;;;;;;;;;;4407575;32;20224;-82
2021/12/29 03:40:37;;;;;;;85.23;45.50;;;;;;;;;;4408089;32;20269;-80
2021/12/29 03:43:05;;;;;;;100.37;52.80;;;;;;;;;;4408713;32;20222;-80
2021/12/29 03:45:31;;;;;;;79.33;46.00;;;;;;;;;;4408804;32;20355;-82
2021/12/29 03:47:57;;;;;;;77.63;43.70;;;;;;;;;;4409044;32;20650;-80
2021/12/29 03:50:22;;;;;;;80.67;42.80;;;;;;;;;;4395504;32;20222;-81
2021/12/29 03:52:48;;;;;;;74.83;40.87;;;;;;;;;;4408636;32;20267;-80
2021/12/29 03:55:14;;;;;;;80.33;43.10;;;;;;;;;;4409272;32;20421;-79
2021/12/29 03:57:40;;;;;;;76.73;41.20;;;;;;;;;;4409579;32;20224;-80
2021/12/29 04:00:12;;;;;;;83.63;41.83;;;;;;;;;;4408863;32;20634;-82
2021/12/29 04:02:41;;;;;;;92.80;40.43;;;;;;;;;;4409185;32;20263;-82
2021/12/29 04:05:09;;;;;;;76.43;41.00;;;;;;;;;;4409557;32;20232;-79
2021/12/29 04:07:34;;;;;;;77.00;41.63;;;;;;;;;;4408593;32;20373;-83
2021/12/29 04:10:00;;;;;;;68.70;41.03;;;;;;;;;;4408732;32;20512;-83
2021/12/29 04:12:27;;;;;;;88.23;44.17;;;;;;;;;;4407936;32;20217;-84
2021/12/29 04:14:52;;;;;;;88.10;45.93;;;;;;;;;;4407843;32;20189;-81
2021/12/29 04:17:25;;;;;;;87.53;44.20;;;;;;;;;;4393008;32;20221;-83
2021/12/29 04:22:34;;;;;;;100.27;54.67;;;;;;;;;;4407876;32;20598;-86
2021/12/29 04:25:00;;;;;;;103.43;51.07;;;;;;;;;;4408095;32;20202;-81
2021/12/29 04:27:27;;;;;;;101.93;49.77;;;;;;;;;;4393565;32;20264;-81
2021/12/29 04:29:52;;;;;;;103.63;52.87;;;;;;;;;;4407654;32;20294;-85
2021/12/29 04:32:19;;;;;;;107.83;54.37;;;;;;;;;;4408448;32;20270;-80
2021/12/29 04:34:44;;;;;;;95.50;53.57;;;;;;;;;;4393862;32;20230;-82
2021/12/29 04:37:10;;;;;;;115.30;57.10;;;;;;;;;;4407553;32;20275;-81
2021/12/29 04:39:35;;;;;;;126.83;63.07;;;;;;;;;;4407663;32;20682;-86
2021/12/29 04:42:01;;;;;;;100.67;53.67;;;;;;;;;;4407563;32;20272;-80
2021/12/29 04:44:26;;;;;;;107.30;57.30;;;;;;;;;;4407285;32;20209;-80
2021/12/29 04:46:54;;;;;;;107.10;58.03;;;;;;;;;;4393673;32;20225;-83
2021/12/29 04:49:25;;;;;;;126.13;63.60;;;;;;;;;;4407368;32;20224;-80
2021/12/29 04:52:03;;;;;;;130.00;67.50;;;;;;;;;;4407182;32;20262;-79
2021/12/29 04:54:29;;;;;;;131.30;68.37;;;;;;;;;;4394625;32;20208;-81
2021/12/29 04:56:55;;;;;;;125.47;63.60;;;;;;;;;;4407910;32;20232;-81
2021/12/29 04:59:22;;;;;;;130.17;64.73;;;;;;;;;;4407196;32;20213;-81
2021/12/29 05:01:50;;;;;;;124.83;62.57;;;;;;;;;;4406977;32;20272;-86
2021/12/29 05:04:22;;;;;;;131.80;67.87;;;;;;;;;;4407020;32;20393;-86
2021/12/29 05:09:34;;;;;;;123.40;63.67;;;;;;;;;;4406241;32;20324;-83
2021/12/29 05:12:01;;;;;;;126.30;68.23;;;;;;;;;;4407386;32;20328;-81
2021/12/29 05:14:27;;;;;;;123.90;63.53;;;;;;;;;;4407656;32;20339;-80
2021/12/29 05:16:52;;;;;;;110.17;59.03;;;;;;;;;;4406907;32;20651;-80
2021/12/29 05:19:18;;;;;;;109.43;58.20;;;;;;;;;;4406617;32;20285;-82
2021/12/29 05:21:45;;;;;;;110.67;60.43;;;;;;;;;;4406274;32;20303;-83
2021/12/29 05:24:10;;;;;;;110.97;57.73;;;;;;;;;;4406851;32;20233;-79
2021/12/29 05:26:36;;;;;;;103.83;54.40;;;;;;;;;;4406697;32;20332;-83
2021/12/29 05:29:02;;;;;;;111.00;58.67;;;;;;;;;;4405946;32;20218;-81
2021/12/29 05:31:28;;;;;;;116.70;58.27;;;;;;;;;;4406284;32;20193;-79
2021/12/29 05:33:56;;;;;;;126.43;63.13;;;;;;;;;;4406220;32;20733;-82
2021/12/29 05:36:21;;;;;;;128.67;65.90;;;;;;;;;;4406673;32;20584;-79
2021/12/29 05:42:09;;;;;;;159.03;71.77;;;;;;;;;;4408606;32;20551;-82
2021/12/29 05:44:34;;;;;;;127.07;61.17;;;;;;;;;;4407095;32;20229;-80
2021/12/29 05:47:00;;;;;;;126.87;62.90;;;;;;;;;;4407217;32;20213;-83
2021/12/29 05:49:25;;;;;;;121.73;58.67;;;;;;;;;;4406208;32;20285;-80
2021/12/29 05:51:51;;;;;;;110.53;56.63;;;;;;;;;;4405896;32;20220;-81
2021/12/29 05:54:17;;;;;;;99.20;50.40;;;;;;;;;;4392863;32;20734;-82
2021/12/29 05:56:42;;;;;;;99.17;51.67;;;;;;;;;;4406442;32;20504;-81
2021/12/29 05:59:09;;;;;;;101.80;57.53;;;;;;;;;;4406011;32;20638;-85
2021/12/29 06:01:36;;;;;;;103.00;54.30;;;;;;;;;;4405906;32;20241;-80
2021/12/29 06:04:01;;;;;;;115.87;58.23;;;;;;;;;;4406169;32;20320;-81
2021/12/29 06:06:27;;;;;;;113.93;58.43;;;;;;;;;;4405675;32;20197;-81
2021/12/29 06:08:52;;;;;;;111.43;62.73;;;;;;;;;;4392213;32;20670;-82
2021/12/29 06:11:18;;;;;;;148.33;70.50;;;;;;;;;;4406212;32;20682;-79
2021/12/29 06:13:45;;;;;;;125.80;66.80;;;;;;;;;;4405973;32;20247;-79
2021/12/29 06:16:10;;;;;;;147.77;70.83;;;;;;;;;;4406218;32;20209;-78
2021/12/29 06:18:35;;;;;;;153.10;70.73;;;;;;;;;;4405781;32;20194;-81
2021/12/29 06:21:01;;;;;;;135.93;65.90;;;;;;;;;;4406245;32;20221;-85
2021/12/29 06:23:26;;;;;;;96.57;52.53;;;;;;;;;;4392125;32;20218;-82
2021/12/29 06:25:52;;;;;;;91.57;47.90;;;;;;;;;;4405953;32;20280;-86
2021/12/29 06:28:17;;;;;;;78.30;46.37;;;;;;;;;;4405887;32;20288;-80
2021/12/29 06:30:43;;;;;;;76.20;45.97;;;;;;;;;;4392307;32;20709;-81
2021/12/29 06:33:09;;;;;;;86.80;47.23;;;;;;;;;;4406066;32;20270;-81
2021/12/29 06:35:34;;;;;;;95.40;49.30;;;;;;;;;;4406239;32;20225;-82
2021/12/29 06:38:00;;;;;;;89.73;50.10;;;;;;;;;;4392389;32;20305;-82
2021/12/29 06:40:25;;;;;;;102.53;58.80;;;;;;;;;;4392854;32;20665;-79
2021/12/29 06:42:51;;;;;;;110.53;63.90;;;;;;;;;;4409357;32;20201;-79
2021/12/29 06:45:17;;;;;;;91.93;53.97;;;;;;;;;;4409325;32;20221;-81
2021/12/29 06:47:42;;;;;;;84.23;44.47;;;;;;;;;;4410285;32;20307;-83
2021/12/29 06:50:08;;;;;;;98.30;50.63;;;;;;;;;;4408977;32;20282;-85
2021/12/29 06:52:34;;;;;;;100.83;52.23;;;;;;;;;;4409283;32;20292;-80
2021/12/29 06:55:00;;;;;;;77.73;46.20;;;;;;;;;;4395297;32;20259;-86
2021/12/29 06:57:26;;;;;;;88.00;47.07;;;;;;;;;;4409109;32;20550;-80
2021/12/29 06:59:51;;;;;;;68.10;39.73;;;;;;;;;;4408972;32;20217;-84
2021/12/29 07:02:17;;;;;;;80.33;44.77;;;;;;;;;;4395437;32;20213;-81
2021/12/29 07:04:43;;;;;;;104.43;53.47;;;;;;;;;;4409463;32;20301;-81
2021/12/29 07:07:09;;;;;;;104.20;57.50;;;;;;;;;;4408980;32;20260;-86
2021/12/29 07:09:35;;;;;;;91.93;53.97;;;;;;;;;;4409580;32;20565;-86
2021/12/29 07:12:01;;;;;;;81.43;47.17;;;;;;;;;;4409837;32;20302;-79
2021/12/29 07:14:27;;;;;;;64.03;40.43;;;;;;;;;;4409228;32;20201;-79
2021/12/29 07:16:52;;;;;;;74.60;40.10;;;;;;;;;;4409674;32;20247;-79
2021/12/29 07:19:19;;;;;;;73.50;38.80;;;;;;;;;;4409678;32;20213;-79
2021/12/29 07:21:46;;;;;;;68.43;38.73;;;;;;;;;;4396188;32;20241;-82
2021/12/29 07:24:11;;;;;;;67.57;39.73;;;;;;;;;;4410540;32;20216;-80
2021/12/29 07:26:38;;;;;;;71.40;41.40;;;;;;;;;;4410458;32;20237;-83
2021/12/29 07:29:06;;;;;;;91.70;49.93;;;;;;;;;;4397147;32;20221;-81
2021/12/29 07:31:32;;;;;;;109.00;57.80;;;;;;;;;;4411765;32;20222;-83
2021/12/29 07:33:58;;;;;;;99.77;58.13;;;;;;;;;;4413069;32;20245;-79
2021/12/29 07:36:23;;;;;;;110.17;62.87;;;;;;;;;;4416925;32;20276;-82
2021/12/29 07:38:50;;;;;;;128.10;69.67;;;;;;;;;;4421444;32;20198;-85
2021/12/29 07:41:16;;;;;;;127.63;73.10;;;;;;;;;;4421742;32;20274;-82
2021/12/29 07:43:42;;;;;;;135.87;71.53;;;;;;;;;;4407372;32;20222;-84
2021/12/29 07:46:09;;;;;;;125.57;70.87;;;;;;;;;;4421170;32;20214;-84
2021/12/29 07:48:34;;;;;;;128.93;72.67;;;;;;;;;;4421408;32;20310;-81
2021/12/29 07:51:03;;;;;;;151.60;77.17;;;;;;;;;;4421364;32;20214;-87
2021/12/29 07:53:29;;;;;;;143.23;77.57;;;;;;;;;;4421496;32;20241;-81
2021/12/29 07:55:54;;;;;;;146.87;78.67;;;;;;;;;;4421010;32;20255;-82
2021/12/29 07:58:20;;;;;;;157.20;85.00;;;;;;;;;;4406010;32;20205;-80
2021/12/29 08:00:47;;;;;;;153.67;85.47;;;;;;;;;;4397583;32;20221;-80
2021/12/29 08:03:13;;;;;;;166.80;89.03;;;;;;;;;;4411390;32;20209;-82
2021/12/29 08:05:40;;;;;;;166.10;91.43;;;;;;;;;;4410459;32;20367;-86
2021/12/29 08:08:06;;;;;;;168.23;95.67;;;;;;;;;;4409969;32;20210;-82
2021/12/29 08:10:36;;;;;;;183.73;93.83;;;;;;;;;;4409143;32;20202;-80
2021/12/29 08:13:04;;;;;;;186.83;103.23;;;;;;;;;;4406869;32;20209;-81
2021/12/29 08:15:32;;;;;;;195.87;105.73;;;;;;;;;;4408847;32;20268;-83
2021/12/29 08:17:58;;;;;;;189.50;103.63;;;;;;;;;;4408772;32;20257;-81
2021/12/29 08:20:24;;;;;;;196.77;105.53;;;;;;;;;;4409327;32;20297;-80
2021/12/29 08:22:49;;;;;;;210.87;106.27;;;;;;;;;;4409177;32;20259;-81
2021/12/29 08:25:15;;;;;;;195.47;107.53;;;;;;;;;;4408399;32;20610;-82
2021/12/29 08:27:40;;;;;;;189.93;108.70;;;;;;;;;;4407811;32;20319;-83
2021/12/29 08:30:07;;;;;;;170.57;99.73;;;;;;;;;;4407550;32;20641;-84
2021/12/29 08:32:33;;;;;;;188.13;95.63;;;;;;;;;;4394010;32;20680;-84
2021/12/29 08:34:59;;;;;;;178.57;100.57;;;;;;;;;;4407604;32;20229;-80
2021/12/29 08:37:24;;;;;;;178.97;96.70;;;;;;;;;;4381167;32;20360;-83
2021/12/29 08:39:50;;;;;;;193.37;109.80;;;;;;;;;;4407130;32;20302;-82
2021/12/29 08:42:16;;;;;;;238.43;133.17;;;;;;;;;;4407128;32;20344;-81
2021/12/29 08:44:42;;;;;;;250.60;148.97;;;;;;;;;;4406810;32;20527;-82
2021/12/29 08:47:08;;;;;;;246.20;147.57;;;;;;;;;;4407677;32;20302;-82
2021/12/29 08:49:34;;;;;;;253.27;141.13;;;;;;;;;;4407477;32;20280;-81
2021/12/29 08:52:00;;;;;;;260.50;136.47;;;;;;;;;;4407985;32;20221;-83
2021/12/29 08:54:26;;;;;;;211.87;113.90;;;;;;;;;;4393575;32;20240;-85
2021/12/29 08:56:54;;;;;;;204.43;112.33;;;;;;;;;;4393805;32;20256;-84
2021/12/29 08:59:21;;;;;;;185.60;105.80;;;;;;;;;;4407371;32;20266;-79
2021/12/29 09:01:46;;;;;;;130.67;76.93;;;;;;;;;;4407337;32;20251;-84
2021/12/29 09:04:13;;;;;;;111.13;65.50;;;;;;;;;;4406592;32;20399;-87
2021/12/29 09:06:39;;;;;;;121.50;68.43;;;;;;;;;;4393051;32;20245;-84
2021/12/29 09:09:05;;;;;;;113.70;67.30;;;;;;;;;;4406947;32;20255;-79
2021/12/29 09:11:30;;;;;;;112.50;61.57;;;;;;;;;;4393061;32;20529;-84
2021/12/29 09:13:57;;;;;;;99.80;54.27;;;;;;;;;;4407326;32;20491;-80
2021/12/29 09:16:23;;;;;;;83.63;48.53;;;;;;;;;;4393197;32;20292;-87
2021/12/29 09:18:49;;;;;;;174.53;81.17;;;;;;;;;;4406979;32;20244;-81
2021/12/29 09:21:16;;;;;;;149.27;72.67;;;;;;;;;;4406828;32;20231;-83
2021/12/29 09:23:43;;;;;;;89.63;53.17;;;;;;;;;;4406717;32;20221;-79
2021/12/29 09:26:12;;;;;;;77.77;47.20;;;;;;;;;;4406766;32;20359;-85
2021/12/29 09:28:38;;;;;;;80.57;49.43;;;;;;;;;;4406925;32;20214;-84
2021/12/29 09:31:04;;;;;;;74.40;42.27;;;;;;;;;;4406850;32;20295;-83
2021/12/29 09:33:30;;;;;;;70.47;39.83;;;;;;;;;;4407072;32;20217;-83
2021/12/29 09:36:01;;;;;;;55.27;36.53;;;;;;;;;;4406371;32;20253;-81
2021/12/29 09:38:27;;;;;;;56.80;34.47;;;;;;;;;;4406657;32;20229;-84
2021/12/29 09:40:53;;;;;;;61.73;36.27;;;;;;;;;;4406711;32;20512;-85
2021/12/29 09:43:19;;;;;;;54.73;32.47;;;;;;;;;;4406701;32;20386;-85
2021/12/29 09:45:46;;;;;;;58.33;33.27;;;;;;;;;;4393069;32;20221;-80
2021/12/29 09:48:14;;;;;;;56.80;34.33;;;;;;;;;;4406891;32;20623;-82
2021/12/29 09:50:40;;;;;;;69.60;39.50;;;;;;;;;;4407124;32;20638;-81
2021/12/29 09:53:07;;;;;;;78.43;45.07;;;;;;;;;;4407183;32;20260;-85
2021/12/29 09:55:33;;;;;;;124.00;68.03;;;;;;;;;;4407169;32;20601;-79
2021/12/29 09:57:59;;;;;;;53.97;34.30;;;;;;;;;;4407284;32;20232;-85
2021/12/29 10:00:26;;;;;;;51.40;28.73;;;;;;;;;;4407527;32;20553;-85
2021/12/29 10:02:54;;;;;;;58.50;32.23;;;;;;;;;;4393775;32;20292;-84
2021/12/29 10:05:21;;;;;;;59.60;31.20;;;;;;;;;;4407229;32;20686;-81
2021/12/29 10:08:16;;;;;;;67.30;36.50;;;;;;;;;;4392996;32;20198;-82
2021/12/29 10:10:48;;;;;;;56.70;31.60;;;;;;;;;;4406173;32;20228;-84
2021/12/29 10:13:14;;;;;;;78.17;48.73;;;;;;;;;;4406861;32;20224;-85
2021/12/29 10:15:53;;;;;;;89.23;54.87;;;;;;;;;;4406377;32;20263;-81
2021/12/29 10:18:27;;;;;;;96.10;61.93;;;;;;;;;;4406807;32;20255;-82
2021/12/29 10:21:02;;;;;;;123.80;73.07;;;;;;;;;;4392909;32;20234;-84
2021/12/29 10:23:35;;;;;;;150.40;96.90;;;;;;;;;;4406965;32;20202;-79
2021/12/29 10:26:08;;;;;;;165.73;102.07;;;;;;;;;;4406015;32;20233;-86
2021/12/29 10:28:35;;;;;;;159.47;101.00;;;;;;;;;;4406435;32;20342;-81
2021/12/29 10:31:13;;;;;;;141.27;91.73;;;;;;;;;;4406468;32;20232;-85
2021/12/29 10:33:53;;;;;;;132.33;87.93;;;;;;;;;;4406588;32;20201;-81
2021/12/29 10:36:19;;;;;;;144.67;90.47;;;;;;;;;;4407690;32;20245;-82
2021/12/29 10:38:50;;;;;;;148.10;90.10;;;;;;;;;;4407184;32;20216;-86
2021/12/29 10:41:16;;;;;;;139.70;87.93;;;;;;;;;;4406322;32;20278;-85
2021/12/29 10:43:50;;;;;;;152.50;96.37;;;;;;;;;;4392526;32;20221;-81
2021/12/29 10:46:20;;;;;;;159.47;92.40;;;;;;;;;;4392566;32;20606;-84
2021/12/29 10:48:49;;;;;;;201.57;122.57;;;;;;;;;;4406607;32;20554;-84
2021/12/29 10:51:15;;;;;;;148.33;90.30;;;;;;;;;;4406367;32;20248;-83
2021/12/29 10:53:40;;;;;;;157.47;94.17;;;;;;;;;;4406351;32;20511;-80
2021/12/29 10:56:24;;;;;;;147.03;89.57;;;;;;;;;;4405803;32;20217;-86
2021/12/29 10:58:53;;;;;;;131.00;80.83;;;;;;;;;;4405855;32;20201;-82
2021/12/29 11:01:21;;;;;;;122.03;75.80;;;;;;;;;;4405899;32;20214;-79
2021/12/29 11:03:52;;;;;;;126.30;76.73;;;;;;;;;;4405465;32;20251;-82
2021/12/29 11:06:22;;;;;;;135.97;81.83;;;;;;;;;;4391771;32;20314;-82
2021/12/29 11:08:57;;;;;;;131.33;79.27;;;;;;;;;;4406475;32;20193;-83
2021/12/29 11:11:39;;;;;;;123.03;71.83;;;;;;;;;;4405316;32;20232;-81
2021/12/29 11:14:07;;;;;;;132.33;78.63;;;;;;;;;;4405724;32;20649;-82
2021/12/29 11:16:33;;;;;;;107.97;67.93;;;;;;;;;;4405947;32;20247;-83
2021/12/29 11:18:58;;;;;;;103.90;64.10;;;;;;;;;;4405830;32;20202;-81
2021/12/29 11:21:30;;;;;;;107.27;67.47;;;;;;;;;;4405065;32;20300;-84
2021/12/29 11:23:56;;;;;;;130.53;74.50;;;;;;;;;;4391295;32;20694;-83
2021/12/29 11:26:33;;;;;;;113.73;67.90;;;;;;;;;;4405556;32;20312;-84
2021/12/29 11:29:13;;;;;;;104.97;65.73;;;;;;;;;;4408986;32;20260;-83
2021/12/29 11:31:46;;;;;;;87.23;51.70;;;;;;;;;;4408839;32;20232;-81
2021/12/29 11:34:16;;;;;;;83.13;48.37;;;;;;;;;;4408395;32;20216;-80
2021/12/29 11:36:42;;;;;;;75.07;44.47;;;;;;;;;;4408500;32;20293;-86
2021/12/29 11:39:08;;;;;;;72.67;43.10;;;;;;;;;;4394984;32;20245;-84
2021/12/29 11:41:34;;;;;;;97.33;56.30;;;;;;;;;;4394712;32;20323;-84
2021/12/29 11:44:00;;;;;;;88.07;51.47;;;;;;;;;;4408664;32;20210;-82
2021/12/29 11:46:26;;;;;;;75.73;46.50;;;;;;;;;;4408581;32;20218;-84
2021/12/29 11:48:53;;;;;;;99.00;47.77;;;;;;;;;;4408570;32;20198;-80
2021/12/29 11:51:33;;;;;;;88.30;49.43;;;;;;;;;;4408366;32;20222;-84
2021/12/29 11:54:06;;;;;;;135.33;68.33;;;;;;;;;;4408397;32;20224;-84
2021/12/29 11:56:39;;;;;;;104.30;59.30;;;;;;;;;;4408309;32;20306;-85
2021/12/29 11:59:05;;;;;;;102.40;59.37;;;;;;;;;;4409326;32;20232;-80
2021/12/29 12:01:31;;;;;;;75.67;46.50;;;;;;;;;;4395117;32;20387;-81
2021/12/29 12:04:02;;;;;;;98.97;57.00;;;;;;;;;;4409059;32;20224;-84
2021/12/29 12:06:32;;;;;;;102.10;56.53;;;;;;;;;;4409423;32;20248;-82
2021/12/29 12:09:16;;;;;;;130.53;72.67;;;;;;;;;;4415603;32;20271;-84
2021/12/29 12:11:48;;;;;;;83.33;42.80;;;;;;;;;;4413527;32;20236;-80
2021/12/29 12:14:23;;;;;;;62.57;36.97;;;;;;;;;;4408611;32;20276;-84
2021/12/29 12:16:54;;;;;;;66.00;38.07;;;;;;;;;;4408909;32;20193;-83
2021/12/29 12:19:22;;;;;;;58.80;34.47;;;;;;;;;;4408162;32;20250;-82
2021/12/29 12:21:48;;;;;;;65.33;38.73;;;;;;;;;;4409724;32;20289;-79
2021/12/29 12:24:25;;;;;;;65.40;38.97;;;;;;;;;;4410306;32;20296;-80
2021/12/29 12:27:02;;;;;;;69.60;41.23;;;;;;;;;;4393833;32;20317;-79
2021/12/29 12:29:31;;;;;;;68.03;40.83;;;;;;;;;;4407964;32;20190;-84
2021/12/29 12:32:18;;;;;;;68.83;40.17;;;;;;;;;;4407826;32;20251;-80
2021/12/29 12:35:05;;;;;;;72.73;42.87;;;;;;;;;;4408103;32;20239;-81
2021/12/29 12:37:36;;;;;;;75.97;46.77;;;;;;;;;;4407458;32;20194;-83
2021/12/29 12:40:10;;;;;;;82.77;46.90;;;;;;;;;;4407615;32;20209;-81
2021/12/29 12:42:37;;;;;;;128.37;73.00;;;;;;;;;;4407861;32;20232;-84
2021/12/29 12:45:19;;;;;;;92.47;58.57;;;;;;;;;;4407699;32;20229;-83
2021/12/29 12:47:45;;;;;;;83.30;47.33;;;;;;;;;;4407719;32;20189;-86
2021/12/29 12:50:25;;;;;;;71.57;41.73;;;;;;;;;;4407755;32;20672;-82
2021/12/29 12:52:53;;;;;;;85.00;46.70;;;;;;;;;;4407745;32;20192;-83
2021/12/29 12:55:19;;;;;;;84.20;47.53;;;;;;;;;;4407671;32;20256;-84
2021/12/29 12:57:47;;;;;;;88.80;48.20;;;;;;;;;;4393392;32;20252;-85
2021/12/29 13:00:32;;;;;;;87.50;51.93;;;;;;;;;;4407344;32;20222;-81
2021/12/29 13:03:04;;;;;;;74.90;45.37;;;;;;;;;;4393184;32;20677;-83
2021/12/29 13:05:33;;;;;;;74.93;46.37;;;;;;;;;;4407306;32;20650;-84
2021/12/29 13:08:09;;;;;;;77.57;44.23;;;;;;;;;;4406796;32;20198;-83
2021/12/29 13:10:46;;;;;;;72.20;44.13;;;;;;;;;;4406982;32;20225;-83
2021/12/29 13:13:28;;;;;;;66.87;40.63;;;;;;;;;;4404522;32;20189;-86
2021/12/29 13:15:58;;;;;;;72.47;40.73;;;;;;;;;;4407187;32;20320;-82
2021/12/29 13:18:25;;;;;;;90.90;48.83;;;;;;;;;;4407465;32;20216;-80
2021/12/29 13:21:00;;;;;;;81.93;45.23;;;;;;;;;;4406874;32;20259;-84
2021/12/29 13:23:26;;;;;;;89.03;48.87;;;;;;;;;;4393235;32;20604;-84
2021/12/29 13:25:53;;;;;;;79.13;44.33;;;;;;;;;;4406431;32;20368;-80
2021/12/29 13:28:20;;;;;;;82.33;42.90;;;;;;;;;;4393075;32;20745;-82
2021/12/29 13:30:55;;;;;;;91.60;45.57;;;;;;;;;;4393016;32;20293;-82
2021/12/29 13:33:30;;;;;;;72.90;41.23;;;;;;;;;;4407101;32;20208;-79
2021/12/29 13:35:57;;;;;;;84.83;45.53;;;;;;;;;;4407032;32;20316;-82
2021/12/29 13:38:23;;;;;;;82.57;44.60;;;;;;;;;;4406994;32;20629;-80
2021/12/29 13:40:55;;;;;;;66.43;39.63;;;;;;;;;;4406282;32;20256;-82
2021/12/29 13:43:25;;;;;;;72.43;36.93;;;;;;;;;;4406917;32;20663;-82
2021/12/29 13:45:53;;;;;;;82.83;42.43;;;;;;;;;;4406822;32;20252;-81
2021/12/29 13:48:21;;;;;;;72.87;38.83;;;;;;;;;;4406397;32;20220;-81
2021/12/29 13:51:11;;;;;;;81.70;44.63;;;;;;;;;;4393041;32;20225;-80
2021/12/29 13:53:39;;;;;;;68.57;40.37;;;;;;;;;;4406831;32;20189;-82
2021/12/29 13:56:11;;;;;;;67.83;42.00;;;;;;;;;;4407295;32;20244;-83
2021/12/29 13:58:38;;;;;;;65.77;41.00;;;;;;;;;;4393055;32;20233;-80
2021/12/29 14:01:05;;;;;;;78.03;44.13;;;;;;;;;;4406548;32;20658;-81
2021/12/29 14:03:31;;;;;;;75.70;45.10;;;;;;;;;;4406859;32;20272;-85
2021/12/29 14:06:08;;;;;;;89.23;50.43;;;;;;;;;;4406403;32;20251;-83
2021/12/29 14:08:35;;;;;;;80.43;50.60;;;;;;;;;;4406441;32;20272;-83
2021/12/29 14:11:06;;;;;;;88.63;52.30;;;;;;;;;;4392686;32;20229;-82
2021/12/29 14:13:34;;;;;;;86.70;53.43;;;;;;;;;;4393314;32;20237;-84
2021/12/29 14:16:09;;;;;;;89.57;50.20;;;;;;;;;;4406519;32;20234;-82
2021/12/29 14:18:46;;;;;;;75.17;41.27;;;;;;;;;;4406358;32;20287;-84
2021/12/29 14:21:18;;;;;;;73.10;39.73;;;;;;;;;;4405523;32;20243;-79
2021/12/29 14:23:50;;;;;;;77.10;40.07;;;;;;;;;;4406022;32;20340;-83